Time;durP1;ratioP1;P1;durP2;ratioP2;P2;SDS_P1;SDS_P2;PMS_P1;PMS_P2;Temp;Humidity;BMP_temperature;BMP_pressure;BME280_temperature;BME280_humidity;BME280_pressure;Samples;Min_cycle;Max_cycle;Signal;HPM_P1;HPM_P2
2021/12/30 00:00:22;;;;;;;36.67;4.88;;;8.50;99.90;;;;;;4976379;28;20467;-78
2021/12/30 00:02:47;;;;;;;38.45;4.35;;;8.90;99.90;;;;;;4993833;28;20046;-78
2021/12/30 00:05:14;;;;;;;36.28;4.40;;;8.50;99.90;;;;;;4980559;28;20095;-78
2021/12/30 00:07:40;;;;;;;30.20;4.63;;;8.50;99.90;;;;;;4975993;28;20045;-78
2021/12/30 00:10:06;;;;;;;46.15;5.75;;;10.20;99.90;;;;;;4985585;28;20033;-78
2021/12/30 00:12:33;;;;;;;40.40;6.55;;;8.40;99.90;;;;;;5001829;28;20069;-77
2021/12/30 00:14:59;;;;;;;41.28;7.07;;;8.30;99.90;;;;;;4990392;28;20057;-78
2021/12/30 00:17:24;;;;;;;36.63;7.50;;;8.20;99.90;;;;;;5006236;28;20046;-78
2021/12/30 00:19:50;;;;;;;41.05;6.25;;;8.30;99.90;;;;;;4982423;28;20057;-77
2021/12/30 00:22:16;;;;;;;35.10;5.20;;;8.30;99.90;;;;;;5004248;28;20076;-78
2021/12/30 00:24:41;;;;;;;39.35;6.00;;;8.30;99.90;;;;;;4989215;28;20119;-78
2021/12/30 00:27:07;;;;;;;37.85;5.68;;;8.30;99.90;;;;;;4990060;28;20183;-78
2021/12/30 00:29:33;;;;;;;37.58;5.70;;;8.20;99.90;;;;;;4987296;28;20053;-78
2021/12/30 00:31:59;;;;;;;37.22;5.45;;;8.30;99.90;;;;;;5006278;28;20049;-78
2021/12/30 00:34:25;;;;;;;43.58;6.53;;;8.20;99.90;;;;;;4983614;28;20042;-76
2021/12/30 00:36:50;;;;;;;42.45;5.43;;;8.30;99.90;;;;;;4991898;28;20065;-77
2021/12/30 00:39:16;;;;;;;37.70;7.10;;;8.20;99.90;;;;;;5000396;28;20057;-78
2021/12/30 00:41:42;;;;;;;57.97;8.02;;;8.30;99.90;;;;;;5003572;28;21150;-78
2021/12/30 00:44:07;;;;;;;40.65;7.43;;;8.30;99.90;;;;;;4996200;28;20125;-78
2021/12/30 00:46:33;;;;;;;49.70;6.45;;;10.00;99.90;;;;;;5000736;28;20049;-78
2021/12/30 00:48:59;;;;;;;47.50;7.07;;;8.20;99.90;;;;;;4997804;28;20037;-78
2021/12/30 00:51:24;;;;;;;37.45;6.10;;;8.20;99.90;;;;;;5004558;28;20408;-78
2021/12/30 00:53:50;;;;;;;43.33;6.68;;;8.20;99.90;;;;;;4999433;28;20375;-77
2021/12/30 00:56:15;;;;;;;41.67;7.32;;;8.20;99.90;;;;;;4996890;28;20041;-77
2021/12/30 00:58:41;;;;;;;51.05;7.15;;;7.90;99.90;;;;;;4981389;28;20067;-78
2021/12/30 01:01:07;;;;;;;40.47;7.65;;;7.80;99.90;;;;;;4987694;28;20191;-78
2021/12/30 01:03:34;;;;;;;54.65;7.55;;;8.10;99.90;;;;;;4982539;28;20042;-77
2021/12/30 01:06:00;;;;;;;45.63;7.13;;;8.00;99.90;;;;;;5005822;28;20046;-78
2021/12/30 01:08:26;;;;;;;46.30;7.22;;;7.90;99.90;;;;;;5005691;28;20049;-78
2021/12/30 01:10:52;;;;;;;45.60;6.88;;;8.00;99.90;;;;;;4985282;28;20041;-77
2021/12/30 01:13:24;;;;;;;48.92;7.07;;;8.00;99.90;;;;;;4979634;28;20056;-78
2021/12/30 01:16:02;;;;;;;49.42;8.25;;;8.10;99.90;;;;;;5025423;28;20054;-78
2021/12/30 01:18:43;;;;;;;39.58;6.65;;;7.90;99.90;;;;;;4983889;28;20067;-78
2021/12/30 01:21:11;;;;;;;38.08;6.72;;;7.90;99.90;;;;;;4998640;28;20041;-77
2021/12/30 01:23:41;;;;;;;44.42;7.20;;;8.00;99.90;;;;;;4982114;28;20375;-77
2021/12/30 01:26:07;;;;;;;42.95;6.72;;;7.90;99.90;;;;;;5004919;28;20437;-78
2021/12/30 01:28:33;;;;;;;57.10;7.10;;;8.00;99.90;;;;;;4982693;28;20053;-78
2021/12/30 01:30:59;;;;;;;48.35;7.40;;;8.60;99.90;;;;;;4991743;28;20038;-77
2021/12/30 01:33:25;;;;;;;53.90;8.40;;;8.00;99.90;;;;;;4990434;28;20042;-78
2021/12/30 01:35:51;;;;;;;50.33;8.05;;;8.00;99.90;;;;;;5005446;28;20034;-77
2021/12/30 01:38:17;;;;;;;39.38;6.78;;;7.90;99.90;;;;;;4979942;28;20038;-78
2021/12/30 01:40:45;;;;;;;53.72;6.90;;;8.00;99.90;;;;;;5002263;28;20033;-78
2021/12/30 01:43:12;;;;;;;50.40;6.90;;;8.00;99.90;;;;;;4998802;28;20056;-78
2021/12/30 01:45:39;;;;;;;47.15;6.50;;;8.00;99.90;;;;;;4978223;28;20069;-77
2021/12/30 01:48:05;;;;;;;38.97;6.20;;;8.00;99.90;;;;;;4980330;28;20077;-77
2021/12/30 01:50:31;;;;;;;45.72;7.78;;;8.00;99.90;;;;;;4986803;28;20042;-78
2021/12/30 01:52:58;;;;;;;52.72;6.82;;;8.00;99.90;;;;;;4993797;28;20041;-78
2021/12/30 01:55:25;;;;;;;52.17;6.68;;;7.90;99.90;;;;;;4998952;28;20462;-78
2021/12/30 01:57:51;;;;;;;45.55;6.53;;;7.90;99.90;;;;;;4976368;28;20456;-77
2021/12/30 02:00:20;;;;;;;43.95;7.32;;;7.80;99.90;;;;;;4996948;28;20030;-77
2021/12/30 02:02:46;;;;;;;38.72;6.45;;;7.80;99.90;;;;;;4995806;28;20046;-77
2021/12/30 02:05:12;;;;;;;47.35;7.90;;;7.30;99.90;;;;;;4983368;28;20557;-77
2021/12/30 02:07:38;;;;;;;40.25;6.30;;;7.60;99.90;;;;;;4983111;28;20076;-77
2021/12/30 02:10:05;;;;;;;46.10;6.50;;;7.50;99.90;;;;;;4999541;28;20045;-77
2021/12/30 02:12:33;;;;;;;54.97;8.15;;;7.70;99.90;;;;;;4995244;28;20546;-77
2021/12/30 02:14:59;;;;;;;44.30;6.53;;;7.60;99.90;;;;;;4978695;28;20057;-77
2021/12/30 02:17:25;;;;;;;42.88;7.28;;;7.60;99.90;;;;;;4978727;28;20620;-77
2021/12/30 02:19:50;;;;;;;47.38;6.55;;;7.60;99.90;;;;;;4990836;28;20045;-77
2021/12/30 02:22:16;;;;;;;43.70;6.22;;;7.50;99.90;;;;;;4999406;28;20045;-77
2021/12/30 02:24:46;;;;;;;50.13;7.95;;;7.50;99.90;;;;;;4983706;28;20049;-77
2021/12/30 02:27:12;;;;;;;49.80;7.90;;;7.60;99.90;;;;;;4979270;28;20037;-77
2021/12/30 02:29:38;;;;;;;53.17;7.75;;;7.60;99.90;;;;;;4979988;28;20435;-76
2021/12/30 02:32:04;;;;;;;39.35;7.30;;;7.60;99.90;;;;;;4983436;28;20085;-78
2021/12/30 02:34:30;;;;;;;52.88;8.13;;;7.60;99.90;;;;;;4981589;28;20131;-78
2021/12/30 02:36:56;;;;;;;37.90;6.78;;;7.60;99.90;;;;;;4980938;28;20085;-77
2021/12/30 02:39:23;;;;;;;59.75;7.40;;;7.80;99.90;;;;;;4980733;28;20034;-78
2021/12/30 02:41:49;;;;;;;43.00;6.97;;;7.60;99.90;;;;;;5000347;28;20042;-78
2021/12/30 02:44:16;;;;;;;59.15;8.35;;;7.60;99.90;;;;;;4978272;28;20034;-78
2021/12/30 02:46:42;;;;;;;50.47;8.25;;;7.60;99.90;;;;;;4993802;28;20046;-78
2021/12/30 02:49:08;;;;;;;51.58;8.45;;;7.60;99.90;;;;;;5025844;28;20048;-78
2021/12/30 02:51:34;;;;;;;57.67;8.10;;;7.40;99.90;;;;;;4994373;28;20088;-78
2021/12/30 02:54:01;;;;;;;58.80;8.38;;;9.60;99.90;;;;;;4975286;28;20069;-78
2021/12/30 02:56:29;;;;;;;50.15;7.50;;;7.50;99.90;;;;;;4976996;28;20046;-77
2021/12/30 02:58:54;;;;;;;51.88;7.18;;;7.50;99.90;;;;;;4994308;28;20042;-78
2021/12/30 03:01:27;;;;;;;51.03;7.40;;;7.50;99.90;;;;;;4992405;28;21813;-77
2021/12/30 03:03:54;;;;;;;38.53;7.35;;;7.60;99.90;;;;;;5003022;28;20482;-78
2021/12/30 03:06:20;;;;;;;50.50;8.80;;;7.60;99.90;;;;;;4992947;28;20050;-78
2021/12/30 03:08:47;;;;;;;54.47;8.63;;;7.60;99.90;;;;;;5010596;28;20060;-78
2021/12/30 03:11:14;;;;;;;50.42;10.23;;;7.60;99.90;;;;;;4976800;28;20052;-78
2021/12/30 03:13:42;;;;;;;46.42;9.05;;;7.60;99.90;;;;;;4977328;28;20045;-78
2021/12/30 03:16:20;;;;;;;49.08;9.73;;;7.60;99.90;;;;;;4992713;28;20129;-78
2021/12/30 03:18:49;;;;;;;48.80;8.82;;;7.60;99.90;;;;;;5010417;28;20387;-78
2021/12/30 03:21:18;;;;;;;51.97;9.55;;;7.70;99.90;;;;;;4984394;28;20038;-78
2021/12/30 03:23:44;;;;;;;53.17;8.68;;;7.70;99.90;;;;;;4984126;28;20129;-78
2021/12/30 03:26:11;;;;;;;58.33;11.05;;;7.60;99.90;;;;;;5002944;28;20486;-78
2021/12/30 03:28:42;;;;;;;49.72;9.55;;;7.70;99.90;;;;;;5003973;28;20046;-78
2021/12/30 03:31:09;;;;;;;48.40;11.13;;;7.70;99.90;;;;;;4983386;28;20045;-78
2021/12/30 03:33:35;;;;;;;56.00;11.38;;;7.70;99.90;;;;;;4985206;28;20481;-77
2021/12/30 03:36:03;;;;;;;55.72;10.98;;;7.80;99.90;;;;;;4977812;28;20168;-77
2021/12/30 03:38:35;;;;;;;56.58;11.23;;;7.80;99.90;;;;;;5001848;28;20101;-78
2021/12/30 03:41:03;;;;;;;53.88;11.30;;;7.80;99.90;;;;;;4998072;28;20041;-77
2021/12/30 03:43:29;;;;;;;51.30;10.90;;;9.70;99.90;;;;;;4982169;28;20038;-78
2021/12/30 03:45:55;;;;;;;56.10;13.02;;;8.10;99.90;;;;;;5000005;28;20153;-77
2021/12/30 03:48:22;;;;;;;64.05;10.13;;;8.10;99.90;;;;;;4986760;28;20462;-78
2021/12/30 03:50:49;;;;;;;62.85;11.27;;;8.20;99.90;;;;;;4986688;28;20049;-78
2021/12/30 03:53:16;;;;;;;52.65;9.55;;;8.20;99.90;;;;;;4998203;28;20073;-78
2021/12/30 03:55:43;;;;;;;51.83;9.88;;;8.20;99.90;;;;;;4988140;28;20056;-78
2021/12/30 03:58:09;;;;;;;59.70;11.05;;;8.30;99.90;;;;;;5001018;28;20034;-79
2021/12/30 04:00:37;;;;;;;52.40;10.05;;;8.30;99.90;;;;;;4983861;28;20088;-78
2021/12/30 04:03:03;;;;;;;59.90;11.75;;;8.30;99.90;;;;;;4989746;28;20046;-77
2021/12/30 04:05:29;;;;;;;46.75;10.63;;;8.40;99.90;;;;;;5000888;28;20042;-77
2021/12/30 04:07:55;;;;;;;55.95;10.63;;;8.30;99.90;;;;;;4984414;28;20034;-78
2021/12/30 04:10:22;;;;;;;56.20;10.60;;;8.30;99.90;;;;;;5001466;28;20038;-77
2021/12/30 04:12:48;;;;;;;63.67;11.70;;;8.30;99.90;;;;;;4999734;28;20042;-77
2021/12/30 04:15:14;;;;;;;48.15;11.30;;;8.30;99.90;;;;;;4983346;28;20053;-78
2021/12/30 04:17:40;;;;;;;65.45;11.85;;;9.10;99.90;;;;;;4984752;28;20056;-77
2021/12/30 04:20:09;;;;;;;58.22;10.35;;;8.40;99.90;;;;;;5001537;28;20044;-78
2021/12/30 04:22:35;;;;;;;67.47;11.85;;;8.40;99.90;;;;;;4983715;28;20045;-78
2021/12/30 04:25:02;;;;;;;63.08;10.98;;;8.50;99.90;;;;;;4999704;28;20833;-78
2021/12/30 04:27:28;;;;;;;60.60;10.93;;;8.40;99.90;;;;;;4983440;28;20414;-78
2021/12/30 04:29:54;;;;;;;72.50;11.25;;;9.20;99.90;;;;;;4986217;28;20040;-78
2021/12/30 04:32:19;;;;;;;65.53;12.25;;;8.40;99.90;;;;;;4985494;28;20045;-77
2021/12/30 04:34:45;;;;;;;53.50;10.18;;;8.40;99.90;;;;;;4996132;28;20042;-78
2021/12/30 04:37:11;;;;;;;66.88;12.35;;;8.20;99.90;;;;;;4982302;28;20038;-78
2021/12/30 04:39:36;;;;;;;61.25;11.45;;;8.50;99.90;;;;;;4998100;28;20046;-78
2021/12/30 04:42:02;;;;;;;72.75;11.57;;;8.60;99.90;;;;;;4982803;28;20512;-78
2021/12/30 04:44:29;;;;;;;61.70;11.55;;;8.70;99.90;;;;;;4985284;28;20045;-78
2021/12/30 04:46:56;;;;;;;71.55;12.82;;;8.80;99.90;;;;;;4998159;28;20382;-79
2021/12/30 04:49:22;;;;;;;74.50;13.90;;;8.70;99.90;;;;;;4998254;28;20041;-78
2021/12/30 04:51:48;;;;;;;63.08;11.48;;;8.80;99.90;;;;;;4987346;28;20523;-77
2021/12/30 04:54:13;;;;;;;67.45;13.10;;;8.80;99.90;;;;;;4979497;28;20125;-78
2021/12/30 04:56:39;;;;;;;68.13;12.65;;;8.90;99.90;;;;;;4980640;28;20084;-78
2021/12/30 04:59:05;;;;;;;84.45;13.68;;;9.00;99.90;;;;;;4986320;28;20045;-78
2021/12/30 05:01:30;;;;;;;70.45;12.45;;;9.10;99.90;;;;;;5001844;28;20669;-77
2021/12/30 05:03:56;;;;;;;67.88;12.98;;;9.20;99.90;;;;;;5004258;28;20046;-78
2021/12/30 05:06:21;;;;;;;69.07;12.98;;;9.20;99.90;;;;;;4996205;28;20171;-78
2021/12/30 05:08:47;;;;;;;66.10;15.93;;;9.30;99.90;;;;;;4998199;28;20094;-78
2021/12/30 05:11:13;;;;;;;65.25;15.10;;;9.30;99.90;;;;;;5004429;28;20096;-79
2021/12/30 05:13:39;;;;;;;75.32;15.93;;;9.30;99.90;;;;;;4999098;28;20050;-79
2021/12/30 05:16:04;;;;;;;70.80;15.32;;;9.50;99.90;;;;;;5000784;28;20053;-77
2021/12/30 05:18:32;;;;;;;82.68;17.00;;;9.50;99.90;;;;;;4996508;28;20054;-78
2021/12/30 05:21:00;;;;;;;72.55;18.45;;;9.50;99.90;;;;;;4987514;28;20042;-78
2021/12/30 05:23:27;;;;;;;92.30;19.50;;;9.50;99.90;;;;;;5000522;28;20490;-78
2021/12/30 05:25:52;;;;;;;66.95;17.17;;;9.60;99.90;;;;;;4980216;28;20418;-78
2021/12/30 05:28:18;;;;;;;81.15;18.63;;;9.70;99.90;;;;;;4979885;28;20045;-78
2021/12/30 05:30:44;;;;;;;72.28;18.27;;;10.40;99.90;;;;;;4990190;28;20071;-78
2021/12/30 05:33:09;;;;;;;66.28;16.77;;;9.60;99.90;;;;;;4980641;28;20416;-78
2021/12/30 05:35:35;;;;;;;51.72;15.02;;;12.20;99.90;;;;;;4976634;28;20375;-78
2021/12/30 05:38:02;;;;;;;55.72;16.48;;;9.80;99.90;;;;;;4988710;28;20076;-78
2021/12/30 05:40:28;;;;;;;48.70;13.82;;;9.90;99.90;;;;;;5022409;28;20057;-78
2021/12/30 05:42:54;;;;;;;33.58;11.95;;;9.90;99.90;;;;;;4984578;28;20136;-78
2021/12/30 05:45:20;;;;;;;52.55;14.23;;;9.60;99.90;;;;;;4983992;28;20232;-78
2021/12/30 05:47:48;;;;;;;39.20;11.73;;;9.90;99.90;;;;;;4994004;28;20053;-78
2021/12/30 05:50:17;;;;;;;41.63;12.55;;;10.00;99.90;;;;;;4988762;28;20041;-78
2021/12/30 05:52:44;;;;;;;38.08;13.02;;;9.90;99.90;;;;;;5015647;28;20057;-78
2021/12/30 05:55:10;;;;;;;31.90;11.30;;;9.90;99.90;;;;;;4999234;28;20128;-78
2021/12/30 05:57:35;;;;;;;35.03;11.52;;;10.00;99.90;;;;;;5027131;28;20446;-78
2021/12/30 06:00:04;;;;;;;27.90;11.75;;;10.00;99.90;;;;;;4996258;28;20118;-78
2021/12/30 06:02:30;;;;;;;35.50;11.35;;;10.00;99.90;;;;;;4985942;28;20061;-78
2021/12/30 06:04:56;;;;;;;34.15;10.63;;;9.60;99.90;;;;;;4981137;28;20560;-78
2021/12/30 06:07:21;;;;;;;31.70;12.48;;;10.00;99.90;;;;;;4977519;28;20073;-78
2021/12/30 06:09:47;;;;;;;31.73;11.13;;;10.00;99.90;;;;;;4979707;28;20458;-78
2021/12/30 06:12:12;;;;;;;41.53;14.02;;;10.00;99.90;;;;;;5000847;28;20037;-78
2021/12/30 06:14:38;;;;;;;46.70;14.40;;;10.10;99.90;;;;;;4996911;28;20120;-78
2021/12/30 06:17:04;;;;;;;50.95;15.02;;;10.00;99.90;;;;;;4988055;28;20077;-78
2021/12/30 06:19:29;;;;;;;40.33;14.43;;;10.10;99.90;;;;;;5002162;28;20128;-77
2021/12/30 06:21:55;;;;;;;49.53;16.27;;;10.20;99.90;;;;;;5000238;28;20466;-78
2021/12/30 06:24:21;;;;;;;54.60;16.10;;;10.50;99.90;;;;;;5002432;28;20371;-78
2021/12/30 06:26:46;;;;;;;66.78;18.48;;;10.20;99.90;;;;;;5001968;28;20767;-78
2021/12/30 06:29:12;;;;;;;78.32;19.80;;;10.20;99.90;;;;;;5001800;28;20049;-78
2021/12/30 06:31:40;;;;;;;68.22;18.63;;;11.40;99.90;;;;;;4997491;28;20064;-78
2021/12/30 06:34:06;;;;;;;59.50;18.05;;;10.20;99.90;;;;;;4993698;28;20038;-79
2021/12/30 06:36:31;;;;;;;77.82;20.63;;;10.30;99.90;;;;;;5012303;28;20375;-78
2021/12/30 06:38:57;;;;;;;70.00;18.77;;;10.40;99.90;;;;;;4994134;28;20089;-79
2021/12/30 06:41:22;;;;;;;72.05;18.15;;;10.40;99.90;;;;;;4997942;28;20045;-79
2021/12/30 06:43:48;;;;;;;75.90;19.02;;;10.40;99.90;;;;;;4999341;28;20072;-79
2021/12/30 06:46:14;;;;;;;79.90;18.98;;;10.40;99.90;;;;;;4994345;28;20038;-79
2021/12/30 06:48:44;;;;;;;70.93;18.10;;;10.40;99.90;;;;;;4978097;28;20081;-79
2021/12/30 06:51:12;;;;;;;50.03;16.05;;;10.40;99.90;;;;;;4983887;28;20066;-79
2021/12/30 06:53:37;;;;;;;55.45;15.68;;;10.40;99.90;;;;;;4987235;28;20686;-78
2021/12/30 06:56:03;;;;;;;56.00;15.00;;;10.40;99.90;;;;;;4980241;28;20037;-78
2021/12/30 06:58:29;;;;;;;48.53;14.60;;;10.40;99.90;;;;;;5000430;28;20394;-78
2021/12/30 07:00:54;;;;;;;39.67;12.27;;;10.40;99.90;;;;;;4985409;28;20057;-78
2021/12/30 07:03:20;;;;;;;38.42;12.00;;;10.40;99.90;;;;;;4985738;28;20041;-79
2021/12/30 07:05:46;;;;;;;42.83;13.48;;;10.40;99.90;;;;;;5004100;28;20161;-79
2021/12/30 07:08:12;;;;;;;37.78;12.95;;;10.50;99.90;;;;;;4993347;28;20042;-78
2021/12/30 07:10:37;;;;;;;32.33;11.93;;;10.60;99.90;;;;;;4975666;28;20053;-78
2021/12/30 07:13:03;;;;;;;38.25;12.55;;;10.50;99.90;;;;;;4977494;28;20038;-79
2021/12/30 07:15:28;;;;;;;27.90;10.80;;;10.60;99.90;;;;;;4976811;28;20373;-80
2021/12/30 07:17:54;;;;;;;29.08;11.38;;;10.60;99.90;;;;;;4996248;28;20454;-79
2021/12/30 07:20:20;;;;;;;33.25;11.80;;;10.60;99.90;;;;;;4980718;28;20437;-78
2021/12/30 07:22:45;;;;;;;21.98;11.00;;;10.60;99.90;;;;;;4985178;28;20046;-78
2021/12/30 07:25:16;;;;;;;24.10;9.52;;;10.60;99.90;;;;;;4994166;28;20501;-78
2021/12/30 07:27:51;;;;;;;25.55;10.10;;;10.60;99.90;;;;;;4995656;28;20041;-78
2021/12/30 07:30:19;;;;;;;20.98;9.73;;;10.60;99.90;;;;;;5011331;28;20140;-79
2021/12/30 07:32:45;;;;;;;18.65;9.35;;;10.60;99.90;;;;;;5004399;28;20053;-78
2021/12/30 07:35:11;;;;;;;20.35;9.63;;;10.60;99.90;;;;;;4981036;28;20096;-79
2021/12/30 07:37:37;;;;;;;16.92;9.27;;;11.00;99.90;;;;;;4995249;28;20046;-78
2021/12/30 07:40:04;;;;;;;20.15;9.30;;;10.50;99.90;;;;;;4988370;28;20042;-79
2021/12/30 07:42:30;;;;;;;15.85;8.80;;;10.70;99.90;;;;;;4979566;28;20487;-81
2021/12/30 07:44:55;;;;;;;16.75;8.73;;;11.00;99.90;;;;;;5029258;28;20048;-81
2021/12/30 07:47:21;;;;;;;18.75;8.70;;;10.60;99.90;;;;;;4992989;28;20437;-79
2021/12/30 07:49:47;;;;;;;12.10;7.63;;;10.70;99.90;;;;;;4994158;28;20038;-79
2021/12/30 07:52:13;;;;;;;13.32;7.60;;;10.70;99.90;;;;;;4974017;28;20390;-80
2021/12/30 07:54:39;;;;;;;7.60;5.63;;;10.70;99.90;;;;;;4993738;28;20042;-77
2021/12/30 07:57:04;;;;;;;7.07;4.97;;;10.70;99.90;;;;;;4997350;28;20107;-78
2021/12/30 07:59:30;;;;;;;6.60;4.40;;;10.80;99.90;;;;;;4998869;28;20505;-78
2021/12/30 08:01:56;;;;;;;5.60;4.03;;;10.80;99.90;;;;;;4977922;28;20042;-78
2021/12/30 08:04:22;;;;;;;6.60;4.50;;;11.90;99.90;;;;;;4979170;28;20049;-78
2021/12/30 08:06:47;;;;;;;5.82;4.07;;;10.80;99.90;;;;;;5010787;28;20077;-78
2021/12/30 08:09:13;;;;;;;5.80;3.60;;;10.80;99.90;;;;;;4976538;28;20552;-78
2021/12/30 08:11:41;;;;;;;4.38;3.72;;;11.60;99.90;;;;;;4978561;28;20038;-78
2021/12/30 08:14:07;;;;;;;3.70;3.40;;;10.90;99.90;;;;;;4997354;28;20038;-78
2021/12/30 08:16:32;;;;;;;4.43;3.30;;;10.90;99.90;;;;;;4977027;28;20066;-77
2021/12/30 08:18:58;;;;;;;6.45;5.18;;;11.00;99.90;;;;;;4993934;28;20057;-78
2021/12/30 08:21:24;;;;;;;6.15;3.63;;;11.00;99.90;;;;;;5008939;28;20041;-77
2021/12/30 08:23:51;;;;;;;6.05;3.30;;;10.50;99.90;;;;;;4976401;28;20077;-79
2021/12/30 08:26:18;;;;;;;7.50;5.05;;;10.90;99.90;;;;;;4976633;28;20041;-79
2021/12/30 08:28:44;;;;;;;6.85;4.60;;;11.00;99.90;;;;;;5010491;28;20062;-78
2021/12/30 08:31:10;;;;;;;7.10;4.60;;;11.10;99.90;;;;;;4995518;28;20379;-78
2021/12/30 08:33:36;;;;;;;8.65;5.45;;;10.90;99.90;;;;;;5030467;28;20068;-78
2021/12/30 08:36:02;;;;;;;11.00;6.43;;;12.30;99.90;;;;;;5013040;28;20049;-79
2021/12/30 08:38:28;;;;;;;12.07;6.25;;;11.10;99.90;;;;;;4996585;28;20184;-79
2021/12/30 08:40:53;;;;;;;16.35;6.53;;;11.20;99.90;;;;;;4996484;28;20088;-79
2021/12/30 08:43:19;;;;;;;11.52;6.60;;;11.20;99.90;;;;;;4977320;28;20420;-78
2021/12/30 08:45:46;;;;;;;14.93;6.05;;;11.30;99.90;;;;;;4995637;28;20041;-79
2021/12/30 08:48:12;;;;;;;11.05;5.13;;;11.20;99.90;;;;;;4984311;28;20088;-79
2021/12/30 08:50:38;;;;;;;11.50;4.40;;;11.30;99.90;;;;;;5028328;28;20549;-78
2021/12/30 08:53:04;;;;;;;10.85;4.88;;;11.40;99.90;;;;;;4978663;28;20041;-78
2021/12/30 08:55:30;;;;;;;13.35;5.10;;;11.40;99.90;;;;;;4979267;28;20046;-78
2021/12/30 08:57:56;;;;;;;13.07;5.38;;;11.40;99.90;;;;;;4979789;28;20144;-78
2021/12/30 09:00:29;;;;;;;16.15;4.88;;;11.30;99.90;;;;;;4979023;28;20589;-79
2021/12/30 09:02:58;;;;;;;13.53;5.00;;;11.40;99.90;;;;;;4980858;28;20046;-78
2021/12/30 09:05:24;;;;;;;17.15;5.28;;;11.50;99.90;;;;;;4994451;28;20325;-79
2021/12/30 09:07:51;;;;;;;13.82;3.72;;;11.50;99.90;;;;;;5013482;28;20042;-78
2021/12/30 09:10:18;;;;;;;21.40;4.80;;;11.50;99.90;;;;;;4997960;28;20390;-78
2021/12/30 09:12:45;;;;;;;12.55;4.05;;;11.50;99.90;;;;;;5029059;28;20067;-78
2021/12/30 09:15:14;;;;;;;15.35;3.40;;;11.50;99.90;;;;;;4982222;28;20064;-78
2021/12/30 09:17:42;;;;;;;15.10;3.65;;;11.40;99.90;;;;;;5012710;28;20050;-79
2021/12/30 09:20:08;;;;;;;12.35;2.63;;;11.50;99.90;;;;;;4983658;28;20475;-77
2021/12/30 09:22:35;;;;;;;9.05;2.60;;;11.60;99.90;;;;;;5011129;28;20461;-78
2021/12/30 09:25:05;;;;;;;10.32;2.45;;;11.60;99.90;;;;;;4981255;28;20080;-78
2021/12/30 09:27:35;;;;;;;6.95;2.70;;;11.60;99.90;;;;;;4993258;28;20478;-79
2021/12/30 09:30:02;;;;;;;13.25;2.75;;;11.60;99.90;;;;;;5012348;28;20120;-78
2021/12/30 09:32:28;;;;;;;12.80;3.40;;;12.70;99.90;;;;;;4980194;28;20041;-78
2021/12/30 09:34:53;;;;;;;14.57;3.20;;;11.60;99.90;;;;;;4987513;28;20457;-78
2021/12/30 09:37:19;;;;;;;18.27;4.55;;;12.80;99.90;;;;;;4979246;28;20052;-78
2021/12/30 09:39:44;;;;;;;8.60;2.03;;;11.60;99.90;;;;;;4997149;28;20057;-78
2021/12/30 09:42:10;;;;;;;17.77;4.25;;;11.70;99.90;;;;;;4980289;28;20041;-79
2021/12/30 09:44:36;;;;;;;9.55;2.97;;;11.70;99.90;;;;;;4995417;28;20445;-78
2021/12/30 09:47:02;;;;;;;13.07;4.05;;;11.70;99.90;;;;;;4994960;28;20042;-78
2021/12/30 09:49:28;;;;;;;7.88;3.50;;;11.70;99.90;;;;;;4994864;28;20486;-78
2021/12/30 09:51:54;;;;;;;16.40;3.30;;;11.00;99.90;;;;;;5011803;28;20041;-79
2021/12/30 09:54:21;;;;;;;18.75;3.80;;;11.70;99.90;;;;;;4997053;28;20540;-79
2021/12/30 09:56:48;;;;;;;11.60;3.70;;;11.70;99.90;;;;;;5003370;28;20556;-78
2021/12/30 09:59:14;;;;;;;21.73;4.38;;;11.70;99.90;;;;;;4979367;28;20077;-77
2021/12/30 10:01:41;;;;;;;25.42;4.07;;;13.30;99.90;;;;;;4985667;28;20085;-78
2021/12/30 10:04:09;;;;;;;22.45;4.47;;;12.60;99.90;;;;;;4978487;28;20099;-78
2021/12/30 10:06:42;;;;;;;23.33;5.43;;;11.80;99.90;;;;;;4983791;28;20038;-78
2021/12/30 10:09:13;;;;;;;17.52;4.05;;;11.90;99.90;;;;;;4979195;28;20100;-78
2021/12/30 10:11:59;;;;;;;17.25;4.88;;;11.70;99.90;;;;;;4978249;28;20042;-78
2021/12/30 10:14:34;;;;;;;26.33;5.13;;;12.20;99.90;;;;;;4994813;28;20505;-79
2021/12/30 10:17:25;;;;;;;21.60;5.35;;;11.70;99.90;;;;;;5029134;28;20050;-79
2021/12/30 10:19:52;;;;;;;21.83;3.97;;;11.70;99.90;;;;;;4975991;28;20049;-78
2021/12/30 10:22:27;;;;;;;18.17;3.85;;;11.70;99.90;;;;;;4981280;28;20104;-78
2021/12/30 10:24:52;;;;;;;19.42;4.22;;;11.70;99.90;;;;;;4993645;28;20394;-77
2021/12/30 10:27:24;;;;;;;23.52;5.85;;;11.40;99.90;;;;;;4994346;28;20046;-78
2021/12/30 10:29:50;;;;;;;18.80;4.03;;;11.70;99.90;;;;;;4975404;28;20045;-78
2021/12/30 10:32:17;;;;;;;22.63;5.45;;;11.70;99.90;;;;;;4996036;28;20046;-78
2021/12/30 10:35:04;;;;;;;28.08;4.85;;;11.70;99.90;;;;;;5012886;28;20135;-78
2021/12/30 10:37:30;;;;;;;23.42;5.20;;;12.90;99.90;;;;;;5014031;28;20044;-77
2021/12/30 10:39:55;;;;;;;25.67;5.05;;;11.70;99.90;;;;;;4969510;28;20042;-78
2021/12/30 10:42:21;;;;;;;25.88;5.35;;;11.60;99.90;;;;;;4978471;28;20092;-77
2021/12/30 10:44:56;;;;;;;24.65;5.70;;;11.50;99.90;;;;;;4980893;28;20042;-78
2021/12/30 10:47:26;;;;;;;;;;;11.60;99.90;;;;;;5023600;28;20037;-77
2021/12/30 10:50:00;;;;;;;33.42;5.45;;;11.70;99.90;;;;;;4994071;28;19925;-78
2021/12/30 10:52:26;;;;;;;25.48;5.30;;;11.70;99.90;;;;;;5010486;28;20056;-79
2021/12/30 10:54:52;;;;;;;28.77;5.05;;;11.60;99.90;;;;;;5027460;28;20049;-78
2021/12/30 10:57:18;;;;;;;27.92;4.80;;;11.70;99.90;;;;;;4978522;28;20049;-78
2021/12/30 10:59:48;;;;;;;28.10;5.75;;;11.60;99.90;;;;;;4993815;28;20518;-77
2021/12/30 11:02:21;;;;;;;34.83;6.38;;;11.80;99.90;;;;;;4979794;28;20048;-78
2021/12/30 11:04:58;;;;;;;34.70;6.20;;;13.10;99.90;;;;;;5001214;28;20042;-77
2021/12/30 11:07:39;;;;;;;34.90;6.45;;;11.60;99.90;;;;;;5030810;28;20087;-79
2021/12/30 11:10:05;;;;;;;35.22;6.35;;;11.60;99.90;;;;;;4992267;28;20037;-77
2021/12/30 11:12:38;;;;;;;29.45;6.13;;;11.60;99.90;;;;;;5026882;28;20034;-77
2021/12/30 11:15:18;;;;;;;32.67;7.35;;;11.60;99.90;;;;;;4980811;28;20474;-77
2021/12/30 11:17:44;;;;;;;42.42;7.63;;;11.70;99.90;;;;;;4978257;28;20056;-79
2021/12/30 11:20:11;;;;;;;38.83;7.70;;;12.40;99.90;;;;;;4994211;28;20050;-78
2021/12/30 11:22:38;;;;;;;40.10;8.30;;;11.60;99.90;;;;;;4988489;28;20467;-78
2021/12/30 11:25:17;;;;;;;27.70;5.18;;;11.50;99.90;;;;;;5008762;28;20077;-79
2021/12/30 11:27:43;;;;;;;38.83;7.30;;;11.70;99.90;;;;;;5008158;28;20079;-76
2021/12/30 11:30:15;;;;;;;33.97;7.47;;;11.70;99.90;;;;;;4635128;28;9999785;-78
2021/12/30 11:32:45;;;;;;;31.80;6.55;;;11.70;99.90;;;;;;4981814;28;20053;-78
2021/12/30 11:35:11;;;;;;;30.80;5.20;;;11.70;99.90;;;;;;4991039;28;20048;-78
2021/12/30 11:37:37;;;;;;;40.55;7.20;;;13.00;99.90;;;;;;4975377;28;20524;-79
2021/12/30 11:40:08;;;;;;;37.78;7.50;;;11.30;99.90;;;;;;4978227;28;20116;-78
2021/12/30 11:42:40;;;;;;;29.40;6.78;;;11.70;99.90;;;;;;4976620;28;20410;-79
2021/12/30 11:45:35;;;;;;;37.92;7.07;;;11.60;99.90;;;;;;4975186;28;20054;-79
2021/12/30 11:48:03;;;;;;;39.58;6.82;;;11.70;99.90;;;;;;4983508;28;20030;-79
2021/12/30 11:50:38;;;;;;;42.92;6.93;;;12.10;99.90;;;;;;4990261;28;20053;-77
2021/12/30 11:53:04;;;;;;;33.58;7.13;;;11.70;99.90;;;;;;4974619;28;20092;-79
2021/12/30 11:55:51;;;;;;;31.33;6.20;;;11.30;99.90;;;;;;4979829;28;20128;-79
2021/12/30 11:58:34;;;;;;;31.23;6.32;;;11.70;99.90;;;;;;4976197;28;20058;-80
2021/12/30 12:01:12;;;;;;;41.90;7.32;;;11.70;99.90;;;;;;4976522;28;20046;-79
2021/12/30 12:03:42;;;;;;;32.60;6.35;;;11.70;99.90;;;;;;4988692;28;20649;-79
2021/12/30 12:06:38;;;;;;;39.10;7.00;;;11.70;99.90;;;;;;4968677;28;20131;-78
2021/12/30 12:09:13;;;;;;;32.67;6.65;;;11.70;99.90;;;;;;4996804;28;20052;-80
2021/12/30 12:11:46;;;;;;;40.67;7.45;;;11.70;99.90;;;;;;4987253;28;20046;-80
2021/12/30 12:14:22;;;;;;;32.00;5.72;;;11.70;99.90;;;;;;4996586;28;20046;-80
2021/12/30 12:17:04;;;;;;;32.00;5.63;;;11.70;99.90;;;;;;4991514;28;20100;-78
2021/12/30 12:19:37;;;;;;;39.72;7.35;;;11.70;99.90;;;;;;4989040;28;20056;-79
2021/12/30 12:22:05;;;;;;;35.75;5.90;;;11.80;99.90;;;;;;4977019;28;20108;-78
2021/12/30 12:24:34;;;;;;;37.90;7.18;;;11.30;99.90;;;;;;4976437;28;20045;-80
2021/12/30 12:27:10;;;;;;;42.40;6.90;;;11.70;99.90;;;;;;4975268;28;20054;-80
2021/12/30 12:29:48;;;;;;;36.13;7.43;;;11.30;99.90;;;;;;4979299;28;20053;-79
2021/12/30 12:32:17;;;;;;;38.70;6.88;;;11.60;99.90;;;;;;5000645;28;20053;-80
2021/12/30 12:34:53;;;;;;;39.17;7.05;;;11.60;99.90;;;;;;4997854;28;20046;-80
2021/12/30 12:37:36;;;;;;;35.08;7.30;;;11.70;99.90;;;;;;4976847;28;20092;-80
2021/12/30 12:40:07;;;;;;;36.25;7.10;;;11.60;99.90;;;;;;4981898;28;20061;-80